Time;durP1;ratioP1;P1;durP2;ratioP2;P2;SDS_P1;SDS_P2;PMS_P1;PMS_P2;Temp;Humidity;BMP_temperature;BMP_pressure;BME280_temperature;BME280_humidity;BME280_pressure;Samples;Min_cycle;Max_cycle;Signal;HPM_P1;HPM_P2
2022/08/09 00:00:44;;;;;;;;;;;;;;;;;;2115482;28;20018;-47
2022/08/09 00:01:49;;;;;;;;;;;;;;;;;;2115320;28;20010;-46
2022/08/09 00:02:55;;;;;;;;;;;;;;;;;;2115726;28;19976;-45
2022/08/09 00:03:56;;;;;;;;;;;;;;;;;;2115316;28;19963;-46
2022/08/09 00:04:57;;;;;;;;;;;;;;;;;;2115336;28;20346;-45
2022/08/09 00:06:04;;;;;;;;;;;;;;;;;;2115320;28;19985;-45
2022/08/09 00:07:20;;;;;;;;;;;;;;;;;;2115319;28;20361;-45
2022/08/09 00:08:21;;;;;;;;;;;;;;;;;;2115281;28;20018;-45
2022/08/09 00:09:33;;;;;;;;;;;;;;;;;;2115210;28;19924;-46
2022/08/09 00:10:33;;;;;;;;;;;;;;;;;;2115357;28;20361;-45
2022/08/09 00:11:34;;;;;;;;;;;;;;;;;;2109957;28;19924;-46
2022/08/09 00:12:55;;;;;;;;;;;;;;;;;;2106626;28;19924;-45
2022/08/09 00:13:56;;;;;;;;;;;;;;;;;;2107177;28;19924;-48
2022/08/09 00:14:57;;;;;;;;;;;;;;;;;;2106787;28;20035;-48
2022/08/09 00:15:58;;;;;;;;;;;;;;;;;;2106739;28;19924;-47
2022/08/09 00:17:03;;;;;;;;;;;;;;;;;;2106932;28;20010;-46
2022/08/09 00:18:04;;;;;;;;;;;;;;;;;;2106834;28;19924;-47
2022/08/09 00:19:11;;;;;;;;;;;;;;;;;;2106866;28;19924;-46
2022/08/09 00:20:12;;;;;;;;;;;;;;;;;;2106915;28;19967;-47
2022/08/09 00:21:13;;;;;;;;;;;;;;;;;;2106861;28;19932;-47
2022/08/09 00:22:14;;;;;;;;;;;;;;;;;;2106678;28;19924;-46
2022/08/09 00:23:15;;;;;;;;;;;;;;;;;;2106865;28;19924;-47
2022/08/09 00:24:36;;;;;;;;;;;;;;;;;;2106858;28;19928;-47
2022/08/09 00:25:36;;;;;;;;;;;;;;;;;;2106832;28;20372;-47
2022/08/09 00:26:37;;;;;;;;;;;;;;;;;;2106675;28;19967;-47
2022/08/09 00:27:38;;;;;;;;;;;;;;;;;;2106866;28;20321;-48
2022/08/09 00:28:43;;;;;;;;;;;;;;;;;;2106697;28;20396;-46
2022/08/09 00:29:53;;;;;;;;;;;;;;;;;;2106920;28;20023;-46
2022/08/09 00:31:14;;;;;;;;;;;;;;;;;;2110247;28;20334;-46
2022/08/09 00:32:35;;;;;;;;;;;;;;;;;;2115044;28;20269;-47
2022/08/09 00:33:35;;;;;;;;;;;;;;;;;;2115192;28;19931;-47
2022/08/09 00:34:49;;;;;;;;;;;;;;;;;;2115283;28;19924;-46
2022/08/09 00:35:53;;;;;;;;;;;;;;;;;;2115280;28;20401;-47
2022/08/09 00:36:54;;;;;;;;;;;;;;;;;;2115150;28;20022;-47
2022/08/09 00:37:55;;;;;;;;;;;;;;;;;;2115157;28;20038;-47
2022/08/09 00:38:56;;;;;;;;;;;;;;;;;;2115388;28;20380;-46
2022/08/09 00:39:57;;;;;;;;;;;;;;;;;;2115058;28;20030;-46
2022/08/09 00:41:12;;;;;;;;;;;;;;;;;;2115096;28;20618;-45
2022/08/09 00:42:12;;;;;;;;;;;;;;;;;;2115127;28;19947;-46
2022/08/09 00:43:36;;;;;;;;;;;;;;;;;;2114606;28;19923;-46
2022/08/09 00:44:57;;;;;;;;;;;;;;;;;;2115118;28;19931;-46
2022/08/09 00:45:58;;;;;;;;;;;;;;;;;;2115033;28;19953;-46
2022/08/09 00:46:59;;;;;;;;;;;;;;;;;;2114869;28;20411;-46
2022/08/09 00:48:05;;;;;;;;;;;;;;;;;;2115387;28;19924;-46
2022/08/09 00:49:06;;;;;;;;;;;;;;;;;;2114944;28;20384;-46
2022/08/09 00:50:07;;;;;;;;;;;;;;;;;;2115106;28;20054;-47
2022/08/09 00:51:08;;;;;;;;;;;;;;;;;;2115001;28;19927;-47
2022/08/09 00:52:10;;;;;;;;;;;;;;;;;;2115002;28;19924;-46
2022/08/09 00:53:16;;;;;;;;;;;;;;;;;;2114989;28;19927;-48
2022/08/09 00:54:17;;;;;;;;;;;;;;;;;;2115106;28;20026;-47
2022/08/09 00:55:18;;;;;;;;;;;;;;;;;;2115013;28;19931;-50
2022/08/09 00:56:39;;;;;;;;;;;;;;;;;;2115047;28;19924;-46
2022/08/09 00:57:39;;;;;;;;;;;;;;;;;;2114892;28;19972;-48
2022/08/09 00:58:40;;;;;;;;;;;;;;;;;;2115095;28;20309;-47
2022/08/09 00:59:41;;;;;;;;;;;;;;;;;;2114950;28;20379;-50
2022/08/09 01:00:47;;;;;;;;;;;;;;;;;;2115127;28;19923;-49
2022/08/09 01:01:48;;;;;;;;;;;;;;;;;;2114996;28;20314;-49
2022/08/09 01:02:48;;;;;;;;;;;;;;;;;;2114897;28;20438;-49
2022/08/09 01:03:49;;;;;;;;;;;;;;;;;;2115001;28;19997;-48
2022/08/09 01:04:50;;;;;;;;;;;;;;;;;;2115286;28;20022;-50
2022/08/09 01:05:51;;;;;;;;;;;;;;;;;;2115026;28;20015;-48
2022/08/09 01:06:54;;;;;;;;;;;;;;;;;;2114849;28;19924;-49
2022/08/09 01:07:55;;;;;;;;;;;;;;;;;;2114937;28;19924;-47
2022/08/09 01:09:01;;;;;;;;;;;;;;;;;;2115007;28;19927;-47
2022/08/09 01:10:02;;;;;;;;;;;;;;;;;;2115242;28;19923;-52
2022/08/09 01:11:03;;;;;;;;;;;;;;;;;;2113785;28;20368;-48
2022/08/09 01:12:05;;;;;;;;;;;;;;;;;;2106612;28;19971;-48
2022/08/09 01:13:06;;;;;;;;;;;;;;;;;;2106293;28;20015;-47
2022/08/09 01:14:07;;;;;;;;;;;;;;;;;;2106413;28;20078;-47
2022/08/09 01:15:08;;;;;;;;;;;;;;;;;;2106534;28;19924;-50
2022/08/09 01:16:17;;;;;;;;;;;;;;;;;;2106350;28;19977;-47
2022/08/09 01:17:18;;;;;;;;;;;;;;;;;;2106375;28;19932;-49
2022/08/09 01:18:18;;;;;;;;;;;;;;;;;;2106357;28;20359;-49
2022/08/09 01:19:19;;;;;;;;;;;;;;;;;;2106466;28;19924;-47
2022/08/09 01:20:40;;;;;;;;;;;;;;;;;;2106627;28;19969;-48
2022/08/09 01:21:41;;;;;;;;;;;;;;;;;;2106422;28;20327;-48
2022/08/09 01:22:45;;;;;;;;;;;;;;;;;;2106286;28;19977;-47
2022/08/09 01:23:46;;;;;;;;;;;;;;;;;;2106521;28;19978;-49
2022/08/09 01:25:04;;;;;;;;;;;;;;;;;;2106326;28;19924;-49
2022/08/09 01:26:05;;;;;;;;;;;;;;;;;;2106389;28;20396;-48
2022/08/09 01:27:05;;;;;;;;;;;;;;;;;;2106660;28;20433;-48
2022/08/09 01:28:08;;;;;;;;;;;;;;;;;;2114993;28;19959;-51
2022/08/09 01:29:09;;;;;;;;;;;;;;;;;;2114754;28;20010;-48
2022/08/09 01:30:10;;;;;;;;;;;;;;;;;;2114752;28;19923;-50
2022/08/09 01:31:30;;;;;;;;;;;;;;;;;;2114838;28;19935;-52
2022/08/09 01:32:51;;;;;;;;;;;;;;;;;;2114749;28;20338;-48
2022/08/09 01:33:52;;;;;;;;;;;;;;;;;;2114680;28;20023;-47
2022/08/09 01:34:53;;;;;;;;;;;;;;;;;;2115097;28;19930;-48
2022/08/09 01:35:54;;;;;;;;;;;;;;;;;;2114811;28;19932;-49
2022/08/09 01:36:55;;;;;;;;;;;;;;;;;;2114623;28;20408;-46
2022/08/09 01:37:55;;;;;;;;;;;;;;;;;;2114804;28;19973;-47
2022/08/09 01:39:09;;;;;;;;;;;;;;;;;;2114893;28;19923;-45
2022/08/09 01:40:09;;;;;;;;;;;;;;;;;;2114738;28;19924;-47
2022/08/09 01:41:10;;;;;;;;;;;;;;;;;;2114557;28;20040;-46
2022/08/09 01:42:11;;;;;;;;;;;;;;;;;;2114841;28;19934;-46
2022/08/09 01:43:12;;;;;;;;;;;;;;;;;;2114711;28;20297;-47
2022/08/09 01:44:13;;;;;;;;;;;;;;;;;;2114742;28;19928;-47
2022/08/09 01:45:14;;;;;;;;;;;;;;;;;;2114692;28;19923;-47
2022/08/09 01:46:15;;;;;;;;;;;;;;;;;;2114703;28;20312;-46
2022/08/09 01:47:24;;;;;;;;;;;;;;;;;;2114628;28;20335;-46
2022/08/09 01:48:25;;;;;;;;;;;;;;;;;;2114791;28;19924;-47
2022/08/09 01:49:30;;;;;;;;;;;;;;;;;;2114700;28;19972;-47
2022/08/09 01:50:39;;;;;;;;;;;;;;;;;;2114587;28;20288;-47
2022/08/09 01:51:42;;;;;;;;;;;;;;;;;;2114742;28;19924;-46
2022/08/09 01:52:45;;;;;;;;;;;;;;;;;;2114973;28;19924;-48
2022/08/09 01:53:45;;;;;;;;;;;;;;;;;;2114708;28;19931;-46
2022/08/09 01:54:47;;;;;;;;;;;;;;;;;;2113754;28;19934;-50
2022/08/09 01:55:48;;;;;;;;;;;;;;;;;;2114619;28;20010;-47
2022/08/09 01:56:49;;;;;;;;;;;;;;;;;;2114594;28;19977;-48
2022/08/09 01:57:51;;;;;;;;;;;;;;;;;;2114578;28;20401;-45
2022/08/09 01:58:53;;;;;;;;;;;;;;;;;;2114648;28;19930;-47
2022/08/09 01:59:54;;;;;;;;;;;;;;;;;;2114730;28;19977;-50
2022/08/09 02:01:01;;;;;;;;;;;;;;;;;;2114575;28;20411;-47
2022/08/09 02:02:02;;;;;;;;;;;;;;;;;;2114497;28;20415;-49
2022/08/09 02:03:03;;;;;;;;;;;;;;;;;;2114759;28;19924;-47
2022/08/09 02:04:04;;;;;;;;;;;;;;;;;;2114976;28;20330;-48
2022/08/09 02:05:05;;;;;;;;;;;;;;;;;;2114743;28;19924;-47
2022/08/09 02:06:15;;;;;;;;;;;;;;;;;;2114743;28;19967;-49
2022/08/09 02:07:16;;;;;;;;;;;;;;;;;;2114592;28;19955;-46
2022/08/09 02:08:37;;;;;;;;;;;;;;;;;;2114622;28;19924;-46
2022/08/09 02:09:57;;;;;;;;;;;;;;;;;;2114659;28;19987;-46
2022/08/09 02:11:00;;;;;;;;;;;;;;;;;;2114094;28;19953;-45
2022/08/09 02:12:01;;;;;;;;;;;;;;;;;;2106026;28;19950;-46
2022/08/09 02:13:02;;;;;;;;;;;;;;;;;;2106180;28;19924;-46
2022/08/09 02:14:02;;;;;;;;;;;;;;;;;;2106199;28;20389;-46
2022/08/09 02:15:08;;;;;;;;;;;;;;;;;;2106178;28;19928;-46
2022/08/09 02:16:08;;;;;;;;;;;;;;;;;;2106295;28;20070;-48
2022/08/09 02:17:09;;;;;;;;;;;;;;;;;;2106216;28;20014;-46
2022/08/09 02:18:30;;;;;;;;;;;;;;;;;;2106078;28;19924;-49
2022/08/09 02:19:31;;;;;;;;;;;;;;;;;;2106194;28;19931;-48
2022/08/09 02:20:35;;;;;;;;;;;;;;;;;;2105988;28;20331;-47
2022/08/09 02:21:36;;;;;;;;;;;;;;;;;;2106051;28;19924;-47
2022/08/09 02:22:38;;;;;;;;;;;;;;;;;;2106073;28;20344;-47
2022/08/09 02:23:40;;;;;;;;;;;;;;;;;;2109032;28;19924;-48
2022/08/09 02:24:43;;;;;;;;;;;;;;;;;;2114458;28;19939;-50
2022/08/09 02:25:44;;;;;;;;;;;;;;;;;;2114703;28;19931;-46
2022/08/09 02:26:49;;;;;;;;;;;;;;;;;;2114706;28;19931;-47
2022/08/09 02:27:50;;;;;;;;;;;;;;;;;;2114537;28;19946;-48
2022/08/09 02:29:00;;;;;;;;;;;;;;;;;;2114620;28;19948;-48
2022/08/09 02:30:02;;;;;;;;;;;;;;;;;;2114445;28;19924;-47
2022/08/09 02:31:02;;;;;;;;;;;;;;;;;;2114471;28;20016;-47
2022/08/09 02:32:03;;;;;;;;;;;;;;;;;;2114491;28;19930;-47
2022/08/09 02:33:04;;;;;;;;;;;;;;;;;;2114465;28;19924;-47
2022/08/09 02:34:10;;;;;;;;;;;;;;;;;;2114614;28;19930;-48
2022/08/09 02:35:14;;;;;;;;;;;;;;;;;;2114382;28;20031;-47
2022/08/09 02:36:18;;;;;;;;;;;;;;;;;;2114431;28;20443;-47
2022/08/09 02:37:19;;;;;;;;;;;;;;;;;;2114374;28;19938;-47
2022/08/09 02:38:19;;;;;;;;;;;;;;;;;;2114417;28;19924;-47
2022/08/09 02:39:28;;;;;;;;;;;;;;;;;;2114393;28;19937;-48
2022/08/09 02:40:34;;;;;;;;;;;;;;;;;;2114530;28;19969;-48
2022/08/09 02:41:35;;;;;;;;;;;;;;;;;;2114287;28;19924;-47
2022/08/09 02:42:36;;;;;;;;;;;;;;;;;;2114501;28;19960;-49
2022/08/09 02:43:36;;;;;;;;;;;;;;;;;;2114412;28;19977;-47
2022/08/09 02:44:43;;;;;;;;;;;;;;;;;;2114726;28;19931;-47
2022/08/09 02:45:43;;;;;;;;;;;;;;;;;;2114363;28;19931;-47
2022/08/09 02:46:45;;;;;;;;;;;;;;;;;;2114273;28;19931;-47
2022/08/09 02:47:45;;;;;;;;;;;;;;;;;;2114630;28;20015;-46
2022/08/09 02:49:00;;;;;;;;;;;;;;;;;;2114293;28;20368;-46
2022/08/09 02:50:00;;;;;;;;;;;;;;;;;;2114370;28;19978;-46
2022/08/09 02:51:02;;;;;;;;;;;;;;;;;;2114292;28;19923;-46
2022/08/09 02:52:03;;;;;;;;;;;;;;;;;;2114636;28;20336;-45
2022/08/09 02:53:04;;;;;;;;;;;;;;;;;;2114277;28;19930;-46
2022/08/09 02:54:05;;;;;;;;;;;;;;;;;;2114394;28;19939;-46
2022/08/09 02:55:06;;;;;;;;;;;;;;;;;;2114477;28;19924;-46
2022/08/09 02:56:20;;;;;;;;;;;;;;;;;;2114415;28;19924;-47
2022/08/09 02:57:21;;;;;;;;;;;;;;;;;;2114248;28;19923;-46
2022/08/09 02:58:24;;;;;;;;;;;;;;;;;;2114504;28;19940;-46
2022/08/09 02:59:38;;;;;;;;;;;;;;;;;;2114383;28;19923;-45
2022/08/09 03:00:38;;;;;;;;;;;;;;;;;;2114382;28;20040;-46
2022/08/09 03:01:40;;;;;;;;;;;;;;;;;;2114406;28;20358;-47
2022/08/09 03:02:43;;;;;;;;;;;;;;;;;;2114254;28;19937;-47
2022/08/09 03:03:59;;;;;;;;;;;;;;;;;;2114299;28;19970;-47
2022/08/09 03:05:18;;;;;;;;;;;;;;;;;;2114553;28;20348;-45
2022/08/09 03:06:19;;;;;;;;;;;;;;;;;;2114855;28;19952;-45
2022/08/09 03:07:21;;;;;;;;;;;;;;;;;;2115785;28;20014;-45
2022/08/09 03:08:22;;;;;;;;;;;;;;;;;;2115802;28;19930;-47
2022/08/09 03:09:23;;;;;;;;;;;;;;;;;;2115715;28;20361;-45
2022/08/09 03:10:24;;;;;;;;;;;;;;;;;;2115552;28;20006;-45
2022/08/09 03:11:25;;;;;;;;;;;;;;;;;;2111640;28;19924;-45
2022/08/09 03:12:30;;;;;;;;;;;;;;;;;;2107366;28;19924;-46
2022/08/09 03:13:31;;;;;;;;;;;;;;;;;;2107176;28;20466;-47
2022/08/09 03:14:44;;;;;;;;;;;;;;;;;;2107350;28;19935;-46
2022/08/09 03:15:44;;;;;;;;;;;;;;;;;;2107286;28;20304;-45
2022/08/09 03:17:05;;;;;;;;;;;;;;;;;;2107286;28;19928;-46
2022/08/09 03:18:06;;;;;;;;;;;;;;;;;;2107438;28;19924;-46
2022/08/09 03:19:10;;;;;;;;;;;;;;;;;;2107081;28;20018;-46
2022/08/09 03:20:14;;;;;;;;;;;;;;;;;;2112985;28;20501;-46
2022/08/09 03:21:15;;;;;;;;;;;;;;;;;;2115476;28;19924;-45
2022/08/09 03:22:16;;;;;;;;;;;;;;;;;;2116003;28;19967;-46
2022/08/09 03:23:27;;;;;;;;;;;;;;;;;;2115801;28;19924;-45
2022/08/09 03:24:27;;;;;;;;;;;;;;;;;;2115537;28;20370;-45
2022/08/09 03:25:43;;;;;;;;;;;;;;;;;;2115627;28;19927;-46
2022/08/09 03:26:58;;;;;;;;;;;;;;;;;;2115485;28;20412;-45
2022/08/09 03:27:58;;;;;;;;;;;;;;;;;;2115811;28;19970;-47
2022/08/09 03:28:59;;;;;;;;;;;;;;;;;;2115523;28;19930;-47
2022/08/09 03:30:00;;;;;;;;;;;;;;;;;;2115681;28;19966;-47
2022/08/09 03:31:02;;;;;;;;;;;;;;;;;;2115642;28;19930;-46
2022/08/09 03:32:10;;;;;;;;;;;;;;;;;;2115525;28;20022;-45
2022/08/09 03:33:11;;;;;;;;;;;;;;;;;;2115661;28;20403;-46
2022/08/09 03:34:18;;;;;;;;;;;;;;;;;;2115499;28;20022;-47
2022/08/09 03:35:19;;;;;;;;;;;;;;;;;;2115558;28;19966;-46
2022/08/09 03:36:25;;;;;;;;;;;;;;;;;;2115527;28;19932;-45
2022/08/09 03:37:27;;;;;;;;;;;;;;;;;;2115684;28;20304;-47
2022/08/09 03:38:48;;;;;;;;;;;;;;;;;;2115343;28;20361;-48
2022/08/09 03:39:49;;;;;;;;;;;;;;;;;;2115512;28;20035;-46
2022/08/09 03:40:56;;;;;;;;;;;;;;;;;;2115657;28;20037;-47
2022/08/09 03:41:57;;;;;;;;;;;;;;;;;;2115642;28;20014;-46
2022/08/09 03:43:07;;;;;;;;;;;;;;;;;;2115667;28;19946;-46
2022/08/09 03:44:08;;;;;;;;;;;;;;;;;;2115406;28;20388;-45
2022/08/09 03:45:09;;;;;;;;;;;;;;;;;;2115605;28;19924;-46
2022/08/09 03:46:10;;;;;;;;;;;;;;;;;;2115378;28;20391;-45
2022/08/09 03:47:20;;;;;;;;;;;;;;;;;;2115638;28;19924;-46
2022/08/09 03:48:21;;;;;;;;;;;;;;;;;;2115450;28;20339;-46
2022/08/09 03:49:31;;;;;;;;;;;;;;;;;;2115478;28;19931;-45
2022/08/09 03:50:35;;;;;;;;;;;;;;;;;;2115571;28;19924;-46
2022/08/09 03:51:36;;;;;;;;;;;;;;;;;;2115538;28;19924;-45
2022/08/09 03:52:57;;;;;;;;;;;;;;;;;;2115528;28;19931;-48
2022/08/09 03:53:58;;;;;;;;;;;;;;;;;;2115644;28;19976;-48
2022/08/09 03:55:00;;;;;;;;;;;;;;;;;;2115598;28;19994;-48
2022/08/09 03:56:00;;;;;;;;;;;;;;;;;;2115408;28;20292;-47
2022/08/09 03:57:01;;;;;;;;;;;;;;;;;;2115453;28;19976;-47
2022/08/09 03:58:04;;;;;;;;;;;;;;;;;;2115329;28;20284;-46
2022/08/09 03:59:10;;;;;;;;;;;;;;;;;;2115604;28;19924;-47
2022/08/09 04:00:17;;;;;;;;;;;;;;;;;;2115434;28;19988;-47
2022/08/09 04:01:18;;;;;;;;;;;;;;;;;;2115158;28;20383;-47
2022/08/09 04:02:19;;;;;;;;;;;;;;;;;;2115569;28;19923;-48
2022/08/09 04:03:26;;;;;;;;;;;;;;;;;;2115525;28;19923;-46
2022/08/09 04:04:46;;;;;;;;;;;;;;;;;;2115296;28;19946;-46
2022/08/09 04:05:48;;;;;;;;;;;;;;;;;;2115382;28;20018;-46
2022/08/09 04:06:49;;;;;;;;;;;;;;;;;;2115393;28;20296;-47
2022/08/09 04:07:50;;;;;;;;;;;;;;;;;;2115298;28;19924;-46
2022/08/09 04:08:57;;;;;;;;;;;;;;;;;;2115461;28;19957;-46
2022/08/09 04:09:57;;;;;;;;;;;;;;;;;;2115304;28;19935;-47
2022/08/09 04:10:59;;;;;;;;;;;;;;;;;;2115296;28;19963;-47
2022/08/09 04:12:02;;;;;;;;;;;;;;;;;;2115332;28;19931;-48
2022/08/09 04:13:08;;;;;;;;;;;;;;;;;;2115323;28;19923;-46
2022/08/09 04:14:10;;;;;;;;;;;;;;;;;;2115339;28;20027;-46
2022/08/09 04:15:31;;;;;;;;;;;;;;;;;;2115354;28;20038;-47
2022/08/09 04:16:52;;;;;;;;;;;;;;;;;;2107100;28;19967;-48
2022/08/09 04:17:54;;;;;;;;;;;;;;;;;;2106152;28;19924;-47
2022/08/09 04:18:58;;;;;;;;;;;;;;;;;;2107421;28;19928;-45
2022/08/09 04:19:59;;;;;;;;;;;;;;;;;;2106692;28;20040;-45
2022/08/09 04:21:03;;;;;;;;;;;;;;;;;;2106705;28;20258;-46
2022/08/09 04:22:04;;;;;;;;;;;;;;;;;;2106953;28;19931;-46
2022/08/09 04:23:05;;;;;;;;;;;;;;;;;;2106684;28;19930;-45
2022/08/09 04:24:10;;;;;;;;;;;;;;;;;;2107157;28;19924;-47
2022/08/09 04:25:11;;;;;;;;;;;;;;;;;;2106972;28;20336;-46
2022/08/09 04:26:11;;;;;;;;;;;;;;;;;;2106755;28;20003;-45
2022/08/09 04:27:12;;;;;;;;;;;;;;;;;;2106753;28;20327;-45
2022/08/09 04:28:13;;;;;;;;;;;;;;;;;;2106894;28;19928;-46
2022/08/09 04:29:14;;;;;;;;;;;;;;;;;;2106785;28;20222;-46
2022/08/09 04:30:15;;;;;;;;;;;;;;;;;;2106926;28;19925;-45
2022/08/09 04:31:17;;;;;;;;;;;;;;;;;;2106743;28;20026;-45
2022/08/09 04:32:17;;;;;;;;;;;;;;;;;;2106634;28;19924;-44
2022/08/09 04:33:24;;;;;;;;;;;;;;;;;;2106896;28;20323;-46
2022/08/09 04:34:32;;;;;;;;;;;;;;;;;;2106773;28;20274;-46
2022/08/09 04:35:33;;;;;;;;;;;;;;;;;;2106825;28;20010;-46
2022/08/09 04:36:33;;;;;;;;;;;;;;;;;;2106840;28;20373;-46
2022/08/09 04:37:34;;;;;;;;;;;;;;;;;;2106695;28;19931;-46
2022/08/09 04:38:45;;;;;;;;;;;;;;;;;;2106929;28;20062;-46
2022/08/09 04:39:46;;;;;;;;;;;;;;;;;;2106681;28;19924;-47
2022/08/09 04:40:49;;;;;;;;;;;;;;;;;;2106890;28;20570;-46
2022/08/09 04:41:56;;;;;;;;;;;;;;;;;;2106613;28;19924;-46
2022/08/09 04:42:57;;;;;;;;;;;;;;;;;;2106927;28;19924;-46
2022/08/09 04:43:58;;;;;;;;;;;;;;;;;;2106624;28;20360;-47
2022/08/09 04:45:07;;;;;;;;;;;;;;;;;;2106642;28;19924;-46
2022/08/09 04:46:10;;;;;;;;;;;;;;;;;;2106514;28;20389;-46
2022/08/09 04:47:11;;;;;;;;;;;;;;;;;;2106734;28;20007;-45
2022/08/09 04:48:12;;;;;;;;;;;;;;;;;;2106751;28;19928;-46
2022/08/09 04:49:13;;;;;;;;;;;;;;;;;;2106802;28;20019;-45
2022/08/09 04:50:15;;;;;;;;;;;;;;;;;;2106645;28;19925;-44
2022/08/09 04:51:16;;;;;;;;;;;;;;;;;;2106692;28;19924;-46
2022/08/09 04:52:16;;;;;;;;;;;;;;;;;;2106541;28;19931;-49
2022/08/09 04:53:19;;;;;;;;;;;;;;;;;;2107220;28;19967;-45
2022/08/09 04:54:20;;;;;;;;;;;;;;;;;;2106701;28;19924;-45
2022/08/09 04:55:21;;;;;;;;;;;;;;;;;;2106862;28;20280;-47
2022/08/09 04:56:21;;;;;;;;;;;;;;;;;;2106376;28;20368;-47
2022/08/09 04:57:26;;;;;;;;;;;;;;;;;;2106780;28;19924;-46
2022/08/09 04:58:27;;;;;;;;;;;;;;;;;;2106991;28;20440;-46
2022/08/09 04:59:28;;;;;;;;;;;;;;;;;;2106697;28;19957;-47
2022/08/09 05:00:33;;;;;;;;;;;;;;;;;;2106641;28;19924;-46
2022/08/09 05:01:34;;;;;;;;;;;;;;;;;;2106456;28;20369;-47
2022/08/09 05:02:35;;;;;;;;;;;;;;;;;;2106564;28;19924;-46
2022/08/09 05:03:36;;;;;;;;;;;;;;;;;;2106517;28;20285;-47
2022/08/09 05:04:42;;;;;;;;;;;;;;;;;;2106681;28;19931;-47
2022/08/09 05:05:43;;;;;;;;;;;;;;;;;;2106882;28;19928;-45
2022/08/09 05:06:53;;;;;;;;;;;;;;;;;;2106602;28;19978;-45
2022/08/09 05:07:54;;;;;;;;;;;;;;;;;;2106690;28;19970;-47
2022/08/09 05:08:54;;;;;;;;;;;;;;;;;;2106462;28;20293;-47
2022/08/09 05:10:01;;;;;;;;;;;;;;;;;;2106537;28;19954;-47
2022/08/09 05:11:02;;;;;;;;;;;;;;;;;;2106275;28;19924;-48
2022/08/09 05:12:03;;;;;;;;;;;;;;;;;;2106566;28;19924;-48
2022/08/09 05:13:04;;;;;;;;;;;;;;;;;;2114959;28;20258;-48
2022/08/09 05:14:05;;;;;;;;;;;;;;;;;;2114691;28;19955;-47
2022/08/09 05:15:07;;;;;;;;;;;;;;;;;;2114996;28;19924;-48
2022/08/09 05:16:12;;;;;;;;;;;;;;;;;;2114868;28;20010;-48
2022/08/09 05:17:15;;;;;;;;;;;;;;;;;;2114970;28;19924;-48
2022/08/09 05:18:36;;;;;;;;;;;;;;;;;;2114815;28;19960;-47
2022/08/09 05:19:57;;;;;;;;;;;;;;;;;;2115057;28;19924;-45
2022/08/09 05:20:58;;;;;;;;;;;;;;;;;;2114831;28;19932;-45
2022/08/09 05:21:59;;;;;;;;;;;;;;;;;;2114779;28;20348;-45
2022/08/09 05:23:00;;;;;;;;;;;;;;;;;;2115039;28;20018;-45
2022/08/09 05:24:21;;;;;;;;;;;;;;;;;;2114869;28;19928;-47
2022/08/09 05:25:21;;;;;;;;;;;;;;;;;;2114940;28;19924;-45
2022/08/09 05:26:22;;;;;;;;;;;;;;;;;;2115113;28;19936;-48
2022/08/09 05:27:37;;;;;;;;;;;;;;;;;;2115216;28;19924;-48
2022/08/09 05:28:39;;;;;;;;;;;;;;;;;;2114802;28;20281;-47
2022/08/09 05:29:40;;;;;;;;;;;;;;;;;;2114901;28;19966;-49
2022/08/09 05:30:41;;;;;;;;;;;;;;;;;;2114884;28;19954;-48
2022/08/09 05:31:42;;;;;;;;;;;;;;;;;;2114733;28;19931;-47
2022/08/09 05:32:46;;;;;;;;;;;;;;;;;;2114589;28;19965;-46
2022/08/09 05:33:51;;;;;;;;;;;;;;;;;;2115049;28;19930;-46
2022/08/09 05:34:52;;;;;;;;;;;;;;;;;;2114705;28;19930;-45
2022/08/09 05:35:53;;;;;;;;;;;;;;;;;;2115349;28;20057;-48
2022/08/09 05:36:55;;;;;;;;;;;;;;;;;;2114729;28;20438;-48
2022/08/09 05:37:56;;;;;;;;;;;;;;;;;;2114947;28;20280;-47
2022/08/09 05:38:57;;;;;;;;;;;;;;;;;;2115181;28;19928;-46
2022/08/09 05:39:57;;;;;;;;;;;;;;;;;;2114953;28;19973;-44
2022/08/09 05:40:58;;;;;;;;;;;;;;;;;;2115179;28;19928;-44
2022/08/09 05:41:59;;;;;;;;;;;;;;;;;;2114769;28;19924;-46
2022/08/09 05:43:01;;;;;;;;;;;;;;;;;;2114721;28;19931;-46
2022/08/09 05:44:02;;;;;;;;;;;;;;;;;;2114609;28;20003;-46
2022/08/09 05:45:04;;;;;;;;;;;;;;;;;;2114848;28;20026;-47
2022/08/09 05:46:04;;;;;;;;;;;;;;;;;;2115386;28;20011;-47
2022/08/09 05:47:05;;;;;;;;;;;;;;;;;;2115431;28;20010;-45
2022/08/09 05:48:07;;;;;;;;;;;;;;;;;;2114955;28;20350;-45
2022/08/09 05:49:07;;;;;;;;;;;;;;;;;;2114667;28;20262;-45
2022/08/09 05:50:14;;;;;;;;;;;;;;;;;;2114907;28;19977;-51
2022/08/09 05:51:32;;;;;;;;;;;;;;;;;;2115974;28;20304;-45
2022/08/09 05:52:43;;;;;;;;;;;;;;;;;;2114992;28;20802;-50
2022/08/09 05:53:45;;;;;;;;;;;;;;;;;;2114799;28;19924;-47
2022/08/09 05:54:56;;;;;;;;;;;;;;;;;;2115018;28;19923;-44
2022/08/09 05:55:57;;;;;;;;;;;;;;;;;;2114660;28;19971;-45
2022/08/09 05:56:58;;;;;;;;;;;;;;;;;;2114629;28;20236;-45
2022/08/09 05:57:59;;;;;;;;;;;;;;;;;;2114707;28;19924;-44
2022/08/09 05:59:00;;;;;;;;;;;;;;;;;;2114982;28;20364;-46
2022/08/09 06:00:02;;;;;;;;;;;;;;;;;;2114976;28;19924;-48
2022/08/09 06:01:03;;;;;;;;;;;;;;;;;;2115097;28;20053;-48
2022/08/09 06:02:04;;;;;;;;;;;;;;;;;;2114946;28;19976;-45
2022/08/09 06:03:05;;;;;;;;;;;;;;;;;;2114610;28;19924;-45
2022/08/09 06:04:11;;;;;;;;;;;;;;;;;;2114975;28;20433;-45
2022/08/09 06:05:12;;;;;;;;;;;;;;;;;;2115185;28;20026;-45
2022/08/09 06:06:14;;;;;;;;;;;;;;;;;;2114493;28;19955;-45
2022/08/09 06:07:15;;;;;;;;;;;;;;;;;;2114680;28;20022;-44
2022/08/09 06:08:22;;;;;;;;;;;;;;;;;;2114460;28;20002;-45
2022/08/09 06:09:25;;;;;;;;;;;;;;;;;;2114799;28;20277;-47
2022/08/09 06:10:46;;;;;;;;;;;;;;;;;;2106438;28;20301;-45
2022/08/09 06:11:46;;;;;;;;;;;;;;;;;;2113159;28;19923;-46
2022/08/09 06:12:57;;;;;;;;;;;;;;;;;;2115157;28;19946;-47
2022/08/09 06:14:03;;;;;;;;;;;;;;;;;;2114586;28;20280;-50
2022/08/09 06:15:04;;;;;;;;;;;;;;;;;;2114903;28;19924;-46
2022/08/09 06:16:10;;;;;;;;;;;;;;;;;;2114835;28;19924;-44
2022/08/09 06:17:11;;;;;;;;;;;;;;;;;;2114723;28;20010;-47
2022/08/09 06:18:12;;;;;;;;;;;;;;;;;;2115063;28;20000;-47
2022/08/09 06:19:13;;;;;;;;;;;;;;;;;;2114741;28;20326;-51
2022/08/09 06:20:14;;;;;;;;;;;;;;;;;;2114643;28;20022;-48
2022/08/09 06:21:18;;;;;;;;;;;;;;;;;;2114585;28;20010;-49
2022/08/09 06:22:20;;;;;;;;;;;;;;;;;;2114404;28;19978;-47
2022/08/09 06:23:28;;;;;;;;;;;;;;;;;;2114853;28;19927;-47
2022/08/09 06:24:49;;;;;;;;;;;;;;;;;;2115147;28;19924;-44
2022/08/09 06:25:50;;;;;;;;;;;;;;;;;;2114646;28;19931;-45
2022/08/09 06:26:55;;;;;;;;;;;;;;;;;;2114593;28;19924;-46
2022/08/09 06:27:56;;;;;;;;;;;;;;;;;;2114532;28;19931;-45
2022/08/09 06:28:57;;;;;;;;;;;;;;;;;;2114519;28;19931;-45
2022/08/09 06:30:01;;;;;;;;;;;;;;;;;;2115254;28;19924;-52
2022/08/09 06:31:10;;;;;;;;;;;;;;;;;;2114612;28;19930;-51
2022/08/09 06:32:11;;;;;;;;;;;;;;;;;;2114446;28;19930;-51
2022/08/09 06:33:32;;;;;;;;;;;;;;;;;;2114522;28;19924;-48
2022/08/09 06:34:41;;;;;;;;;;;;;;;;;;2115399;28;19959;-51
2022/08/09 06:35:42;;;;;;;;;;;;;;;;;;2114568;28;19954;-44
2022/08/09 06:36:58;;;;;;;;;;;;;;;;;;2115992;28;20362;-47
2022/08/09 06:38:00;;;;;;;;;;;;;;;;;;2114809;28;19924;-45
2022/08/09 06:39:09;;;;;;;;;;;;;;;;;;2114603;28;19923;-47
2022/08/09 06:40:11;;;;;;;;;;;;;;;;;;2115099;28;20000;-46
2022/08/09 06:41:23;;;;;;;;;;;;;;;;;;2115315;28;19924;-48
2022/08/09 06:42:24;;;;;;;;;;;;;;;;;;2116265;28;19923;-45
2022/08/09 06:43:31;;;;;;;;;;;;;;;;;;2116252;28;19923;-46
2022/08/09 06:44:34;;;;;;;;;;;;;;;;;;2116476;28;20355;-50
2022/08/09 06:45:35;;;;;;;;;;;;;;;;;;2116013;28;19927;-48
2022/08/09 06:46:56;;;;;;;;;;;;;;;;;;2116182;28;19924;-46
2022/08/09 06:47:57;;;;;;;;;;;;;;;;;;2116346;28;19949;-50
2022/08/09 06:49:01;;;;;;;;;;;;;;;;;;2116360;28;19931;-49
2022/08/09 06:50:02;;;;;;;;;;;;;;;;;;2116586;28;20102;-46
2022/08/09 06:51:14;;;;;;;;;;;;;;;;;;2116095;28;19928;-49
2022/08/09 06:52:15;;;;;;;;;;;;;;;;;;2115850;28;19924;-50
2022/08/09 06:53:17;;;;;;;;;;;;;;;;;;2116089;28;19924;-45
2022/08/09 06:54:17;;;;;;;;;;;;;;;;;;2116339;28;20018;-49
2022/08/09 06:55:20;;;;;;;;;;;;;;;;;;2115832;28;19924;-48
2022/08/09 06:56:23;;;;;;;;;;;;;;;;;;2116101;28;19949;-45
2022/08/09 06:57:31;;;;;;;;;;;;;;;;;;2116574;28;19923;-46
2022/08/09 06:58:52;;;;;;;;;;;;;;;;;;2115881;28;19924;-45
2022/08/09 07:00:13;;;;;;;;;;;;;;;;;;2116182;28;19924;-47
2022/08/09 07:01:34;;;;;;;;;;;;;;;;;;2115831;28;19924;-47
2022/08/09 07:02:36;;;;;;;;;;;;;;;;;;2116188;28;19911;-48
2022/08/09 07:03:37;;;;;;;;;;;;;;;;;;2116661;28;20210;-44
2022/08/09 07:04:40;;;;;;;;;;;;;;;;;;2115530;28;19924;-44
2022/08/09 07:05:41;;;;;;;;;;;;;;;;;;2116023;28;19950;-44
2022/08/09 07:06:54;;;;;;;;;;;;;;;;;;2107504;28;19924;-44
2022/08/09 07:08:00;;;;;;;;;;;;;;;;;;2108242;28;19925;-46
2022/08/09 07:09:02;;;;;;;;;;;;;;;;;;2107608;28;19924;-49
2022/08/09 07:10:03;;;;;;;;;;;;;;;;;;2107537;28;19924;-47
2022/08/09 07:11:16;;;;;;;;;;;;;;;;;;2109715;28;20018;-48
2022/08/09 07:12:24;;;;;;;;;;;;;;;;;;2116696;28;19931;-50
2022/08/09 07:13:25;;;;;;;;;;;;;;;;;;2115722;28;19924;-48
2022/08/09 07:14:29;;;;;;;;;;;;;;;;;;2115963;28;19964;-48
2022/08/09 07:15:30;;;;;;;;;;;;;;;;;;2116056;28;19923;-43
2022/08/09 07:16:51;;;;;;;;;;;;;;;;;;2116152;28;19975;-45
2022/08/09 07:17:58;;;;;;;;;;;;;;;;;;2116297;28;19930;-49
2022/08/09 07:19:03;;;;;;;;;;;;;;;;;;2116470;28;19924;-47
2022/08/09 07:20:04;;;;;;;;;;;;;;;;;;2115818;28;19923;-43